createdAt,value
2022-10-22T00:14:54.715Z,2.1
2022-10-22T00:45:07.033Z,2.3
2022-10-22T01:15:07.569Z,2.3
2022-10-22T01:44:58.000Z,2.2
2022-10-22T02:15:00.308Z,2
2022-10-22T02:45:00.596Z,1.9
2022-10-22T03:15:01.851Z,2
2022-10-22T03:45:02.914Z,2
2022-10-22T04:15:04.080Z,2
2022-10-22T04:45:05.550Z,2.3
2022-10-22T05:15:06.814Z,2.2
2022-10-22T05:45:08.718Z,2.2
2022-10-22T06:15:09.855Z,2.4
2022-10-22T06:45:14.618Z,2.5
2022-10-22T07:15:14.631Z,2.1
2022-10-22T07:45:20.480Z,2.1
2022-10-22T08:15:14.603Z,2.3
2022-10-22T08:45:17.340Z,2.7
2022-10-22T09:15:20.922Z,2.5
2022-10-22T09:45:24.076Z,2.4
2022-10-22T10:15:24.529Z,2
2022-10-22T10:45:26.349Z,1.4
2022-10-22T11:15:26.819Z,1.2
2022-10-22T11:45:35.658Z,1.3
2022-10-22T12:15:30.899Z,1.6
2022-10-22T12:45:30.665Z,2.2
2022-10-22T13:15:41.267Z,1.6
2022-10-22T13:45:33.298Z,2.1
2022-10-22T14:15:35.314Z,1.3
2022-10-22T14:45:37.844Z,1.6
2022-10-22T15:15:40.127Z,1.5
2022-10-22T15:45:41.881Z,1.5
2022-10-22T16:15:44.182Z,1.9
2022-10-22T16:45:50.522Z,1.8
2022-10-22T17:15:47.752Z,1.9
2022-10-22T17:45:49.961Z,2
2022-10-22T18:15:57.076Z,2
2022-10-22T18:45:52.297Z,2.2
2022-10-22T19:15:53.206Z,2.5
2022-10-22T19:45:55.999Z,2.3
2022-10-22T20:15:56.256Z,2.8
2022-10-22T20:45:56.635Z,3.1
2022-10-22T21:15:58.066Z,3.2
2022-10-22T21:46:07.972Z,3.9
2022-10-22T22:16:02.523Z,3.7
2022-10-22T22:46:09.296Z,4.1
2022-10-22T23:16:02.153Z,4.7
2022-10-22T23:46:02.912Z,4.6
